sensor_id;sensor_type;location;lat;lon;timestamp;temperature;humidity
53045;DHT22;38930;52.766;6.884;2022-12-10T00:02:20;-2.60;99.90
53045;DHT22;38930;52.766;6.884;2022-12-10T00:04:45;-2.60;99.90
53045;DHT22;38930;52.766;6.884;2022-12-10T00:07:11;-2.70;99.90
53045;DHT22;38930;52.766;6.884;2022-12-10T00:09:36;-2.70;99.90
53045;DHT22;38930;52.766;6.884;2022-12-10T00:12:02;-2.70;99.90
53045;DHT22;38930;52.766;6.884;2022-12-10T00:14:28;-2.70;99.90
53045;DHT22;38930;52.766;6.884;2022-12-10T00:16:53;-2.70;99.90
53045;DHT22;38930;52.766;6.884;2022-12-10T00:19:19;-2.70;99.90
53045;DHT22;38930;52.766;6.884;2022-12-10T00:21:45;-2.70;99.90
53045;DHT22;38930;52.766;6.884;2022-12-10T00:24:11;-2.70;99.90
53045;DHT22;38930;52.766;6.884;2022-12-10T00:26:38;-2.70;99.90
53045;DHT22;38930;52.766;6.884;2022-12-10T00:29:05;-2.70;99.90
53045;DHT22;38930;52.766;6.884;2022-12-10T00:31:33;-2.70;99.90
53045;DHT22;38930;52.766;6.884;2022-12-10T00:34:01;-2.80;99.90
53045;DHT22;38930;52.766;6.884;2022-12-10T00:36:30;-2.80;99.90
53045;DHT22;38930;52.766;6.884;2022-12-10T00:38:56;-2.80;99.90
53045;DHT22;38930;52.766;6.884;2022-12-10T00:41:22;-2.80;99.90
53045;DHT22;38930;52.766;6.884;2022-12-10T00:43:48;-2.80;99.90
53045;DHT22;38930;52.766;6.884;2022-12-10T00:46:15;-2.80;99.90
53045;DHT22;38930;52.766;6.884;2022-12-10T00:48:41;-2.90;99.90
53045;DHT22;38930;52.766;6.884;2022-12-10T00:53:39;-2.90;99.90
53045;DHT22;38930;52.766;6.884;2022-12-10T00:56:06;-2.90;99.90
53045;DHT22;38930;52.766;6.884;2022-12-10T00:58:32;-2.90;99.90
53045;DHT22;38930;52.766;6.884;2022-12-10T01:01:14;-3.00;99.90
53045;DHT22;38930;52.766;6.884;2022-12-10T01:03:41;-3.00;99.90
53045;DHT22;38930;52.766;6.884;2022-12-10T01:06:18;-3.00;99.90
53045;DHT22;38930;52.766;6.884;2022-12-10T01:08:45;-2.90;99.90
53045;DHT22;38930;52.766;6.884;2022-12-10T01:11:12;-2.90;99.90
53045;DHT22;38930;52.766;6.884;2022-12-10T01:13:39;-2.90;99.90
53045;DHT22;38930;52.766;6.884;2022-12-10T01:16:06;-2.80;99.90
53045;DHT22;38930;52.766;6.884;2022-12-10T01:18:33;-2.80;99.90
53045;DHT22;38930;52.766;6.884;2022-12-10T01:21:04;-2.60;99.90
53045;DHT22;38930;52.766;6.884;2022-12-10T01:23:34;-2.60;99.90
53045;DHT22;38930;52.766;6.884;2022-12-10T01:26:02;-2.50;99.90
53045;DHT22;38930;52.766;6.884;2022-12-10T01:28:30;-2.50;99.90
53045;DHT22;38930;52.766;6.884;2022-12-10T01:31:00;-2.40;99.90
53045;DHT22;38930;52.766;6.884;2022-12-10T01:33:25;-2.40;99.90
53045;DHT22;38930;52.766;6.884;2022-12-10T01:35:51;-2.30;99.90
53045;DHT22;38930;52.766;6.884;2022-12-10T01:38:17;-2.20;99.90
53045;DHT22;38930;52.766;6.884;2022-12-10T01:40:43;-2.20;99.90
53045;DHT22;38930;52.766;6.884;2022-12-10T01:43:13;-2.10;99.90
53045;DHT22;38930;52.766;6.884;2022-12-10T01:45:39;-2.00;99.90
53045;DHT22;38930;52.766;6.884;2022-12-10T01:48:05;-2.00;99.90
53045;DHT22;38930;52.766;6.884;2022-12-10T01:50:31;-2.00;99.90
53045;DHT22;38930;52.766;6.884;2022-12-10T01:52:56;-1.90;99.90
53045;DHT22;38930;52.766;6.884;2022-12-10T01:55:42;-1.80;99.90
53045;DHT22;38930;52.766;6.884;2022-12-10T01:58:09;-1.80;99.90
53045;DHT22;38930;52.766;6.884;2022-12-10T02:00:37;-1.70;99.90
53045;DHT22;38930;52.766;6.884;2022-12-10T02:03:17;-1.70;99.90
53045;DHT22;38930;52.766;6.884;2022-12-10T02:05:51;-1.70;99.90
53045;DHT22;38930;52.766;6.884;2022-12-10T02:08:26;-1.60;99.90
53045;DHT22;38930;52.766;6.884;2022-12-10T02:13:39;-1.50;99.90
53045;DHT22;38930;52.766;6.884;2022-12-10T02:16:14;-1.50;99.90
53045;DHT22;38930;52.766;6.884;2022-12-10T02:18:49;-1.50;99.90
53045;DHT22;38930;52.766;6.884;2022-12-10T02:21:28;-1.40;99.90
53045;DHT22;38930;52.766;6.884;2022-12-10T02:23:59;-1.40;99.90
53045;DHT22;38930;52.766;6.884;2022-12-10T02:29:22;-1.50;99.90
53045;DHT22;38930;52.766;6.884;2022-12-10T02:31:53;-1.50;99.90
53045;DHT22;38930;52.766;6.884;2022-12-10T02:34:21;-1.50;99.90
53045;DHT22;38930;52.766;6.884;2022-12-10T02:36:50;-1.50;99.90
53045;DHT22;38930;52.766;6.884;2022-12-10T02:39:20;-1.50;99.90
53045;DHT22;38930;52.766;6.884;2022-12-10T02:41:54;-1.60;99.90
53045;DHT22;38930;52.766;6.884;2022-12-10T02:44:21;-1.60;99.90
53045;DHT22;38930;52.766;6.884;2022-12-10T02:46:50;-1.60;99.90
53045;DHT22;38930;52.766;6.884;2022-12-10T02:49:18;-1.60;99.90
53045;DHT22;38930;52.766;6.884;2022-12-10T02:51:43;-1.70;99.90
53045;DHT22;38930;52.766;6.884;2022-12-10T02:54:44;-1.70;99.90
53045;DHT22;38930;52.766;6.884;2022-12-10T02:57:50;-1.70;99.90
53045;DHT22;38930;52.766;6.884;2022-12-10T03:00:22;-1.70;99.90
53045;DHT22;38930;52.766;6.884;2022-12-10T03:05:27;-1.80;99.90
53045;DHT22;38930;52.766;6.884;2022-12-10T03:10:42;-1.80;99.90
53045;DHT22;38930;52.766;6.884;2022-12-10T03:13:13;-1.80;99.90
53045;DHT22;38930;52.766;6.884;2022-12-10T03:15:41;-1.80;99.90
53045;DHT22;38930;52.766;6.884;2022-12-10T03:18:08;-1.80;99.90
53045;DHT22;38930;52.766;6.884;2022-12-10T03:20:39;-1.80;99.90
53045;DHT22;38930;52.766;6.884;2022-12-10T03:23:12;-1.80;99.90
53045;DHT22;38930;52.766;6.884;2022-12-10T03:25:39;-1.80;99.90
53045;DHT22;38930;52.766;6.884;2022-12-10T03:28:06;-1.90;99.90
53045;DHT22;38930;52.766;6.884;2022-12-10T03:30:32;-1.70;99.90
53045;DHT22;38930;52.766;6.884;2022-12-10T03:32:59;-1.90;99.90
53045;DHT22;38930;52.766;6.884;2022-12-10T03:35:25;-1.90;99.90
53045;DHT22;38930;52.766;6.884;2022-12-10T03:37:52;-1.90;99.90
53045;DHT22;38930;52.766;6.884;2022-12-10T03:40:21;-1.90;99.90
53045;DHT22;38930;52.766;6.884;2022-12-10T03:42:47;-1.90;99.90
53045;DHT22;38930;52.766;6.884;2022-12-10T03:45:13;-1.90;99.90
53045;DHT22;38930;52.766;6.884;2022-12-10T03:47:40;-1.90;99.90
53045;DHT22;38930;52.766;6.884;2022-12-10T03:50:06;-2.00;99.90
53045;DHT22;38930;52.766;6.884;2022-12-10T03:52:32;-2.00;99.90
53045;DHT22;38930;52.766;6.884;2022-12-10T03:54:57;-2.00;99.90
53045;DHT22;38930;52.766;6.884;2022-12-10T03:57:23;-2.00;99.90
53045;DHT22;38930;52.766;6.884;2022-12-10T03:59:49;-2.00;99.90
53045;DHT22;38930;52.766;6.884;2022-12-10T04:02:14;-2.10;99.90
53045;DHT22;38930;52.766;6.884;2022-12-10T04:04:40;-2.10;99.90
53045;DHT22;38930;52.766;6.884;2022-12-10T04:07:05;-2.10;99.90
53045;DHT22;38930;52.766;6.884;2022-12-10T04:09:31;-2.20;99.90
53045;DHT22;38930;52.766;6.884;2022-12-10T04:11:58;-2.20;99.90
53045;DHT22;38930;52.766;6.884;2022-12-10T04:14:24;-2.20;99.90
53045;DHT22;38930;52.766;6.884;2022-12-10T04:17:09;-2.30;99.90
53045;DHT22;38930;52.766;6.884;2022-12-10T04:19:35;-2.30;99.90
53045;DHT22;38930;52.766;6.884;2022-12-10T04:22:00;-2.10;99.90
53045;DHT22;38930;52.766;6.884;2022-12-10T04:24:45;-2.30;99.90
53045;DHT22;38930;52.766;6.884;2022-12-10T04:27:39;-2.30;99.90
53045;DHT22;38930;52.766;6.884;2022-12-10T04:30:09;-2.40;99.90
53045;DHT22;38930;52.766;6.884;2022-12-10T04:32:35;-2.40;99.90
53045;DHT22;38930;52.766;6.884;2022-12-10T04:35:01;-2.50;99.90
53045;DHT22;38930;52.766;6.884;2022-12-10T04:37:27;-2.50;99.90
53045;DHT22;38930;52.766;6.884;2022-12-10T04:39:53;-2.50;99.90
53045;DHT22;38930;52.766;6.884;2022-12-10T04:42:20;-2.50;99.90
53045;DHT22;38930;52.766;6.884;2022-12-10T04:44:46;-2.50;99.90
53045;DHT22;38930;52.766;6.884;2022-12-10T04:47:12;-2.50;99.90
53045;DHT22;38930;52.766;6.884;2022-12-10T04:49:38;-2.60;99.90
53045;DHT22;38930;52.766;6.884;2022-12-10T04:52:05;-2.70;99.90
53045;DHT22;38930;52.766;6.884;2022-12-10T04:54:31;-2.60;99.90
53045;DHT22;38930;52.766;6.884;2022-12-10T04:56:57;-2.60;99.90
53045;DHT22;38930;52.766;6.884;2022-12-10T04:59:23;-2.70;99.90
53045;DHT22;38930;52.766;6.884;2022-12-10T05:01:48;-2.70;99.90
53045;DHT22;38930;52.766;6.884;2022-12-10T05:04:16;-2.70;99.90
53045;DHT22;38930;52.766;6.884;2022-12-10T05:06:43;-2.70;99.90
53045;DHT22;38930;52.766;6.884;2022-12-10T05:09:11;-2.70;99.90
53045;DHT22;38930;52.766;6.884;2022-12-10T05:11:37;-2.70;99.90
53045;DHT22;38930;52.766;6.884;2022-12-10T05:14:02;-2.70;99.90
53045;DHT22;38930;52.766;6.884;2022-12-10T05:16:30;-2.70;99.90
53045;DHT22;38930;52.766;6.884;2022-12-10T05:18:57;-2.70;99.90
53045;DHT22;38930;52.766;6.884;2022-12-10T05:21:24;-2.70;99.90
53045;DHT22;38930;52.766;6.884;2022-12-10T05:23:50;-2.70;99.90
53045;DHT22;38930;52.766;6.884;2022-12-10T05:28:51;-2.80;99.90
53045;DHT22;38930;52.766;6.884;2022-12-10T05:31:23;-2.80;99.90
53045;DHT22;38930;52.766;6.884;2022-12-10T05:33:49;-2.80;99.90
53045;DHT22;38930;52.766;6.884;2022-12-10T05:36:18;-2.80;99.90
53045;DHT22;38930;52.766;6.884;2022-12-10T05:38:44;-2.80;99.90
53045;DHT22;38930;52.766;6.884;2022-12-10T05:41:15;-2.80;99.90
53045;DHT22;38930;52.766;6.884;2022-12-10T05:43:42;-2.80;99.90
53045;DHT22;38930;52.766;6.884;2022-12-10T05:46:14;-2.80;99.90
53045;DHT22;38930;52.766;6.884;2022-12-10T05:48:40;-2.80;99.90
53045;DHT22;38930;52.766;6.884;2022-12-10T05:51:11;-2.80;99.90
53045;DHT22;38930;52.766;6.884;2022-12-10T05:53:37;-2.80;99.90
53045;DHT22;38930;52.766;6.884;2022-12-10T05:56:06;-2.80;99.90
53045;DHT22;38930;52.766;6.884;2022-12-10T05:58:32;-2.80;99.90
53045;DHT22;38930;52.766;6.884;2022-12-10T06:00:58;-2.80;99.90
53045;DHT22;38930;52.766;6.884;2022-12-10T06:03:27;-2.80;99.90
53045;DHT22;38930;52.766;6.884;2022-12-10T06:05:53;-2.80;99.90
53045;DHT22;38930;52.766;6.884;2022-12-10T06:08:19;-2.80;99.90
53045;DHT22;38930;52.766;6.884;2022-12-10T06:10:45;-2.90;99.90
53045;DHT22;38930;52.766;6.884;2022-12-10T06:13:11;-2.90;99.90
53045;DHT22;38930;52.766;6.884;2022-12-10T06:15:39;-2.90;99.90
53045;DHT22;38930;52.766;6.884;2022-12-10T06:18:05;-3.00;99.90
53045;DHT22;38930;52.766;6.884;2022-12-10T06:20:31;-3.00;99.90
53045;DHT22;38930;52.766;6.884;2022-12-10T06:22:56;-2.90;99.90
53045;DHT22;38930;52.766;6.884;2022-12-10T06:25:22;-2.90;99.90
53045;DHT22;38930;52.766;6.884;2022-12-10T06:27:48;-2.90;99.90
53045;DHT22;38930;52.766;6.884;2022-12-10T06:30:13;-2.90;99.90
53045;DHT22;38930;52.766;6.884;2022-12-10T06:32:39;-2.90;99.90
53045;DHT22;38930;52.766;6.884;2022-12-10T06:35:05;-2.90;99.90
53045;DHT22;38930;52.766;6.884;2022-12-10T06:37:31;-2.90;99.90
53045;DHT22;38930;52.766;6.884;2022-12-10T06:39:57;-2.90;99.90
53045;DHT22;38930;52.766;6.884;2022-12-10T06:42:22;-2.80;99.90
53045;DHT22;38930;52.766;6.884;2022-12-10T06:44:48;-2.80;99.90
53045;DHT22;38930;52.766;6.884;2022-12-10T06:47:13;-2.90;99.90
53045;DHT22;38930;52.766;6.884;2022-12-10T06:49:40;-2.80;99.90
53045;DHT22;38930;52.766;6.884;2022-12-10T06:52:06;-2.80;99.90
53045;DHT22;38930;52.766;6.884;2022-12-10T06:54:31;-2.80;99.90
53045;DHT22;38930;52.766;6.884;2022-12-10T06:56:57;-2.80;99.90
53045;DHT22;38930;52.766;6.884;2022-12-10T06:59:23;-2.80;99.90
53045;DHT22;38930;52.766;6.884;2022-12-10T07:01:48;-2.80;99.90
53045;DHT22;38930;52.766;6.884;2022-12-10T07:04:14;-2.70;99.90
53045;DHT22;38930;52.766;6.884;2022-12-10T07:06:40;-2.80;99.90
53045;DHT22;38930;52.766;6.884;2022-12-10T07:09:05;-2.80;99.90
53045;DHT22;38930;52.766;6.884;2022-12-10T07:11:31;-2.40;99.90
53045;DHT22;38930;52.766;6.884;2022-12-10T07:13:58;-2.70;99.90
53045;DHT22;38930;52.766;6.884;2022-12-10T07:16:27;-2.80;99.90
53045;DHT22;38930;52.766;6.884;2022-12-10T07:18:55;-2.80;99.90
53045;DHT22;38930;52.766;6.884;2022-12-10T07:21:26;-1.90;99.90
53045;DHT22;38930;52.766;6.884;2022-12-10T07:23:53;-2.80;99.90
53045;DHT22;38930;52.766;6.884;2022-12-10T07:26:21;-2.80;99.90
53045;DHT22;38930;52.766;6.884;2022-12-10T07:28:47;-2.80;99.90
53045;DHT22;38930;52.766;6.884;2022-12-10T07:31:13;-2.80;99.90
53045;DHT22;38930;52.766;6.884;2022-12-10T07:33:38;-2.80;99.90
53045;DHT22;38930;52.766;6.884;2022-12-10T07:36:13;-2.80;99.90
53045;DHT22;38930;52.766;6.884;2022-12-10T07:38:40;-2.80;99.90
53045;DHT22;38930;52.766;6.884;2022-12-10T07:41:11;-2.70;99.90
53045;DHT22;38930;52.766;6.884;2022-12-10T07:43:41;-2.60;99.90
53045;DHT22;38930;52.766;6.884;2022-12-10T07:46:14;-2.70;99.90
53045;DHT22;38930;52.766;6.884;2022-12-10T07:48:41;-2.70;99.90
53045;DHT22;38930;52.766;6.884;2022-12-10T07:51:07;-2.80;99.90
53045;DHT22;38930;52.766;6.884;2022-12-10T07:53:33;-2.80;99.90
53045;DHT22;38930;52.766;6.884;2022-12-10T07:55:59;-2.70;99.90
53045;DHT22;38930;52.766;6.884;2022-12-10T07:58:25;-2.70;99.90
53045;DHT22;38930;52.766;6.884;2022-12-10T08:00:51;-2.80;99.90
53045;DHT22;38930;52.766;6.884;2022-12-10T08:03:16;-2.60;99.90
53045;DHT22;38930;52.766;6.884;2022-12-10T08:05:42;-2.60;99.90
53045;DHT22;38930;52.766;6.884;2022-12-10T08:08:07;-2.20;99.90
53045;DHT22;38930;52.766;6.884;2022-12-10T08:10:35;-2.50;99.90
53045;DHT22;38930;52.766;6.884;2022-12-10T08:13:00;-2.40;99.90
53045;DHT22;38930;52.766;6.884;2022-12-10T08:15:26;-2.40;99.90
53045;DHT22;38930;52.766;6.884;2022-12-10T08:17:54;-2.30;99.90
53045;DHT22;38930;52.766;6.884;2022-12-10T08:20:20;-2.20;99.90
53045;DHT22;38930;52.766;6.884;2022-12-10T08:22:45;-2.10;99.90
53045;DHT22;38930;52.766;6.884;2022-12-10T08:25:11;-2.10;99.90
53045;DHT22;38930;52.766;6.884;2022-12-10T08:27:36;-2.00;99.90
53045;DHT22;38930;52.766;6.884;2022-12-10T08:30:02;-2.00;99.90
53045;DHT22;38930;52.766;6.884;2022-12-10T08:32:28;-1.90;99.90
53045;DHT22;38930;52.766;6.884;2022-12-10T08:34:54;-1.90;99.90
53045;DHT22;38930;52.766;6.884;2022-12-10T08:37:19;-1.90;99.90
53045;DHT22;38930;52.766;6.884;2022-12-10T08:39:45;-1.80;99.90
53045;DHT22;38930;52.766;6.884;2022-12-10T08:42:11;-1.80;99.90
53045;DHT22;38930;52.766;6.884;2022-12-10T08:44:36;-1.80;99.90
53045;DHT22;38930;52.766;6.884;2022-12-10T08:47:02;-1.80;99.90
53045;DHT22;38930;52.766;6.884;2022-12-10T08:49:28;-1.70;99.90
53045;DHT22;38930;52.766;6.884;2022-12-10T08:51:54;-1.60;99.90
53045;DHT22;38930;52.766;6.884;2022-12-10T08:54:19;-1.60;99.90
53045;DHT22;38930;52.766;6.884;2022-12-10T08:56:45;-1.50;99.90
53045;DHT22;38930;52.766;6.884;2022-12-10T08:59:11;-0.90;99.90
53045;DHT22;38930;52.766;6.884;2022-12-10T09:01:36;-1.20;99.90
53045;DHT22;38930;52.766;6.884;2022-12-10T09:04:02;-1.40;99.90
53045;DHT22;38930;52.766;6.884;2022-12-10T09:06:28;-1.40;99.90
53045;DHT22;38930;52.766;6.884;2022-12-10T09:08:54;-1.30;99.90
53045;DHT22;38930;52.766;6.884;2022-12-10T09:11:29;-1.40;99.90
53045;DHT22;38930;52.766;6.884;2022-12-10T09:13:56;-1.30;99.90
53045;DHT22;38930;52.766;6.884;2022-12-10T09:16:27;-1.30;99.90
53045;DHT22;38930;52.766;6.884;2022-12-10T09:18:53;-1.40;99.90
53045;DHT22;38930;52.766;6.884;2022-12-10T09:21:19;-1.40;99.90
53045;DHT22;38930;52.766;6.884;2022-12-10T09:23:44;-1.40;99.90
53045;DHT22;38930;52.766;6.884;2022-12-10T09:26:13;-1.10;99.90
53045;DHT22;38930;52.766;6.884;2022-12-10T09:28:40;-1.40;99.90
53045;DHT22;38930;52.766;6.884;2022-12-10T09:31:07;-1.40;99.90
53045;DHT22;38930;52.766;6.884;2022-12-10T09:33:34;-1.40;99.90
53045;DHT22;38930;52.766;6.884;2022-12-10T09:35:59;-1.40;99.90
53045;DHT22;38930;52.766;6.884;2022-12-10T09:38:27;-1.40;99.90
53045;DHT22;38930;52.766;6.884;2022-12-10T09:41:03;-1.40;99.90
53045;DHT22;38930;52.766;6.884;2022-12-10T09:48:47;-1.10;99.90
53045;DHT22;38930;52.766;6.884;2022-12-10T09:51:23;-1.10;99.90
53045;DHT22;38930;52.766;6.884;2022-12-10T09:53:51;-1.10;99.90
53045;DHT22;38930;52.766;6.884;2022-12-10T09:56:30;-1.10;99.90
53045;DHT22;38930;52.766;6.884;2022-12-10T09:58:57;-1.10;99.90
53045;DHT22;38930;52.766;6.884;2022-12-10T10:01:27;-1.00;99.90
53045;DHT22;38930;52.766;6.884;2022-12-10T10:03:54;-1.10;99.90
53045;DHT22;38930;52.766;6.884;2022-12-10T10:06:21;-1.00;99.90
53045;DHT22;38930;52.766;6.884;2022-12-10T10:08:52;-0.90;99.90
53045;DHT22;38930;52.766;6.884;2022-12-10T10:11:22;-0.90;99.90
53045;DHT22;38930;52.766;6.884;2022-12-10T10:13:50;-0.80;99.90
53045;DHT22;38930;52.766;6.884;2022-12-10T10:18:59;-0.70;99.90
53045;DHT22;38930;52.766;6.884;2022-12-10T10:21:30;-0.60;99.90
53045;DHT22;38930;52.766;6.884;2022-12-10T10:23:58;-0.50;99.90
53045;DHT22;38930;52.766;6.884;2022-12-10T10:26:28;-0.50;99.90
53045;DHT22;38930;52.766;6.884;2022-12-10T10:28:58;-0.40;99.90
53045;DHT22;38930;52.766;6.884;2022-12-10T10:31:27;-0.40;99.90
53045;DHT22;38930;52.766;6.884;2022-12-10T10:33:57;-0.40;99.90
53045;DHT22;38930;52.766;6.884;2022-12-10T10:36:34;-0.30;99.90
53045;DHT22;38930;52.766;6.884;2022-12-10T10:39:24;-0.30;99.90
53045;DHT22;38930;52.766;6.884;2022-12-10T10:41:53;-0.30;99.90
53045;DHT22;38930;52.766;6.884;2022-12-10T10:44:22;-0.20;99.90
53045;DHT22;38930;52.766;6.884;2022-12-10T10:46:50;-0.10;99.90
53045;DHT22;38930;52.766;6.884;2022-12-10T10:49:32;-0.10;99.90
53045;DHT22;38930;52.766;6.884;2022-12-10T10:52:13;0.00;99.90
53045;DHT22;38930;52.766;6.884;2022-12-10T10:54:41;1.10;99.90
53045;DHT22;38930;52.766;6.884;2022-12-10T10:57:32;0.00;99.90
53045;DHT22;38930;52.766;6.884;2022-12-10T11:00:22;0.00;99.90
53045;DHT22;38930;52.766;6.884;2022-12-10T11:02:48;0.00;99.90
53045;DHT22;38930;52.766;6.884;2022-12-10T11:05:20;-0.10;99.90
53045;DHT22;38930;52.766;6.884;2022-12-10T11:07:47;-0.10;99.90
53045;DHT22;38930;52.766;6.884;2022-12-10T11:10:19;-0.10;99.90
53045;DHT22;38930;52.766;6.884;2022-12-10T11:12:55;-0.10;99.90
53045;DHT22;38930;52.766;6.884;2022-12-10T11:17:49;-0.10;99.90
53045;DHT22;38930;52.766;6.884;2022-12-10T11:22:50;-0.10;99.90
53045;DHT22;38930;52.766;6.884;2022-12-10T11:25:17;-0.20;99.90
53045;DHT22;38930;52.766;6.884;2022-12-10T11:28:08;-0.20;99.90
53045;DHT22;38930;52.766;6.884;2022-12-10T11:30:41;-0.20;99.90
53045;DHT22;38930;52.766;6.884;2022-12-10T11:35:50;-0.20;99.90
53045;DHT22;38930;52.766;6.884;2022-12-10T11:41:29;-0.30;99.90
53045;DHT22;38930;52.766;6.884;2022-12-10T11:49:25;-0.30;99.90
53045;DHT22;38930;52.766;6.884;2022-12-10T12:00:23;-0.30;99.90
53045;DHT22;38930;52.766;6.884;2022-12-10T12:13:21;-0.30;99.90
53045;DHT22;38930;52.766;6.884;2022-12-10T12:16:09;-0.30;99.90
53045;DHT22;38930;52.766;6.884;2022-12-10T12:18:41;-0.30;99.90
53045;DHT22;38930;52.766;6.884;2022-12-10T12:21:11;-0.30;99.90
53045;DHT22;38930;52.766;6.884;2022-12-10T12:23:54;-0.30;99.90
53045;DHT22;38930;52.766;6.884;2022-12-10T12:26:27;-0.20;99.90
53045;DHT22;38930;52.766;6.884;2022-12-10T12:31:52;-0.10;99.90
53045;DHT22;38930;52.766;6.884;2022-12-10T12:37:10;0.00;99.90
53045;DHT22;38930;52.766;6.884;2022-12-10T12:40:03;0.00;99.90
53045;DHT22;38930;52.766;6.884;2022-12-10T12:42:53;-0.10;99.90
53045;DHT22;38930;52.766;6.884;2022-12-10T12:50:26;-0.10;99.90
53045;DHT22;38930;52.766;6.884;2022-12-10T12:52:57;0.00;99.90
53045;DHT22;38930;52.766;6.884;2022-12-10T13:00:46;0.00;99.90
53045;DHT22;38930;52.766;6.884;2022-12-10T13:03:35;0.50;99.90
53045;DHT22;38930;52.766;6.884;2022-12-10T13:06:22;-0.10;99.90
53045;DHT22;38930;52.766;6.884;2022-12-10T13:14:36;-0.10;99.90
53045;DHT22;38930;52.766;6.884;2022-12-10T13:17:37;-0.20;99.90
53045;DHT22;38930;52.766;6.884;2022-12-10T13:20:41;-0.20;99.90
53045;DHT22;38930;52.766;6.884;2022-12-10T13:28:28;-0.20;99.90
53045;DHT22;38930;52.766;6.884;2022-12-10T13:31:33;-0.20;99.90
53045;DHT22;38930;52.766;6.884;2022-12-10T13:41:38;-0.30;99.90
53045;DHT22;38930;52.766;6.884;2022-12-10T13:45:05;-0.30;99.90
53045;DHT22;38930;52.766;6.884;2022-12-10T13:50:03;-0.20;99.90
53045;DHT22;38930;52.766;6.884;2022-12-10T13:52:35;-0.30;99.90
53045;DHT22;38930;52.766;6.884;2022-12-10T13:55:25;-0.30;99.90
53045;DHT22;38930;52.766;6.884;2022-12-10T14:08:30;-0.10;99.90
53045;DHT22;38930;52.766;6.884;2022-12-10T14:10:58;0.00;99.90
53045;DHT22;38930;52.766;6.884;2022-12-10T14:13:40;0.10;99.90
53045;DHT22;38930;52.766;6.884;2022-12-10T14:16:14;0.10;99.90
53045;DHT22;38930;52.766;6.884;2022-12-10T14:18:47;0.00;99.90
53045;DHT22;38930;52.766;6.884;2022-12-10T14:21:15;0.00;99.90
53045;DHT22;38930;52.766;6.884;2022-12-10T14:23:48;0.10;99.90
53045;DHT22;38930;52.766;6.884;2022-12-10T14:26:19;0.00;99.90
53045;DHT22;38930;52.766;6.884;2022-12-10T14:28:54;0.00;99.90
53045;DHT22;38930;52.766;6.884;2022-12-10T14:31:28;0.00;99.90
53045;DHT22;38930;52.766;6.884;2022-12-10T14:33:59;0.00;99.90
53045;DHT22;38930;52.766;6.884;2022-12-10T14:36:28;-0.10;99.90
53045;DHT22;38930;52.766;6.884;2022-12-10T14:38:55;-0.10;99.90
53045;DHT22;38930;52.766;6.884;2022-12-10T14:41:22;-0.10;99.90
53045;DHT22;38930;52.766;6.884;2022-12-10T14:43:49;-0.10;99.90
53045;DHT22;38930;52.766;6.884;2022-12-10T14:46:19;-0.10;99.90
53045;DHT22;38930;52.766;6.884;2022-12-10T14:48:51;-0.10;99.90
53045;DHT22;38930;52.766;6.884;2022-12-10T14:51:22;0.00;99.90
53045;DHT22;38930;52.766;6.884;2022-12-10T14:53:49;-0.10;99.90
53045;DHT22;38930;52.766;6.884;2022-12-10T14:56:21;-0.20;99.90
53045;DHT22;38930;52.766;6.884;2022-12-10T14:59:38;-0.20;99.90
53045;DHT22;38930;52.766;6.884;2022-12-10T15:01:43;-0.20;99.90
53045;DHT22;38930;52.766;6.884;2022-12-10T15:04:17;-0.20;99.90
53045;DHT22;38930;52.766;6.884;2022-12-10T15:06:44;-0.20;99.90
53045;DHT22;38930;52.766;6.884;2022-12-10T15:09:18;-0.20;99.90
53045;DHT22;38930;52.766;6.884;2022-12-10T15:11:44;-0.30;99.90
53045;DHT22;38930;52.766;6.884;2022-12-10T15:14:17;-0.30;99.90
53045;DHT22;38930;52.766;6.884;2022-12-10T15:16:45;-0.30;99.90
53045;DHT22;38930;52.766;6.884;2022-12-10T15:19:22;-0.40;99.90
53045;DHT22;38930;52.766;6.884;2022-12-10T15:21:49;-0.30;99.90
53045;DHT22;38930;52.766;6.884;2022-12-10T15:26:49;-0.40;99.90
53045;DHT22;38930;52.766;6.884;2022-12-10T15:32:04;-0.50;99.90
53045;DHT22;38930;52.766;6.884;2022-12-10T15:34:55;-0.50;99.90
53045;DHT22;38930;52.766;6.884;2022-12-10T15:37:31;-0.50;99.90
53045;DHT22;38930;52.766;6.884;2022-12-10T15:39:59;-0.50;99.90
53045;DHT22;38930;52.766;6.884;2022-12-10T15:42:39;-0.50;99.90
53045;DHT22;38930;52.766;6.884;2022-12-10T15:45:37;-0.50;99.90
53045;DHT22;38930;52.766;6.884;2022-12-10T15:48:10;-0.50;99.90
53045;DHT22;38930;52.766;6.884;2022-12-10T15:50:38;-0.50;99.90
53045;DHT22;38930;52.766;6.884;2022-12-10T15:53:04;-0.50;99.90
53045;DHT22;38930;52.766;6.884;2022-12-10T15:55:29;-0.50;99.90
53045;DHT22;38930;52.766;6.884;2022-12-10T15:57:55;-0.50;99.90
53045;DHT22;38930;52.766;6.884;2022-12-10T16:00:23;-0.50;99.90
53045;DHT22;38930;52.766;6.884;2022-12-10T16:05:38;-0.50;99.90
53045;DHT22;38930;52.766;6.884;2022-12-10T16:08:17;-0.50;99.90
53045;DHT22;38930;52.766;6.884;2022-12-10T16:10:44;-0.50;99.90
53045;DHT22;38930;52.766;6.884;2022-12-10T16:13:16;-0.50;99.90
53045;DHT22;38930;52.766;6.884;2022-12-10T16:15:52;-0.60;99.90
53045;DHT22;38930;52.766;6.884;2022-12-10T16:18:19;-0.60;99.90
53045;DHT22;38930;52.766;6.884;2022-12-10T16:20:45;-0.70;99.90
53045;DHT22;38930;52.766;6.884;2022-12-10T16:23:11;-0.70;99.90
53045;DHT22;38930;52.766;6.884;2022-12-10T16:25:37;-0.70;99.90
53045;DHT22;38930;52.766;6.884;2022-12-10T16:28:14;-0.70;99.90
53045;DHT22;38930;52.766;6.884;2022-12-10T16:30:44;-0.70;99.90
53045;DHT22;38930;52.766;6.884;2022-12-10T16:33:10;-0.70;99.90
53045;DHT22;38930;52.766;6.884;2022-12-10T16:35:35;-0.70;99.90
53045;DHT22;38930;52.766;6.884;2022-12-10T16:38:01;-0.70;99.90
53045;DHT22;38930;52.766;6.884;2022-12-10T16:40:28;-0.70;99.90
53045;DHT22;38930;52.766;6.884;2022-12-10T16:42:54;-0.80;99.90
53045;DHT22;38930;52.766;6.884;2022-12-10T16:45:36;-0.80;99.90
53045;DHT22;38930;52.766;6.884;2022-12-10T16:48:03;-0.70;99.90
53045;DHT22;38930;52.766;6.884;2022-12-10T16:50:28;-0.80;99.90
53045;DHT22;38930;52.766;6.884;2022-12-10T16:52:55;-0.30;99.90
53045;DHT22;38930;52.766;6.884;2022-12-10T16:55:22;-0.80;99.90
53045;DHT22;38930;52.766;6.884;2022-12-10T16:57:49;-0.80;99.90
53045;DHT22;38930;52.766;6.884;2022-12-10T17:00:20;-0.80;99.90
53045;DHT22;38930;52.766;6.884;2022-12-10T17:02:47;-0.80;99.90
53045;DHT22;38930;52.766;6.884;2022-12-10T17:05:16;-0.80;99.90
53045;DHT22;38930;52.766;6.884;2022-12-10T17:07:43;-0.80;99.90
53045;DHT22;38930;52.766;6.884;2022-12-10T17:10:11;-0.70;99.90
53045;DHT22;38930;52.766;6.884;2022-12-10T17:12:37;-0.70;99.90
53045;DHT22;38930;52.766;6.884;2022-12-10T17:15:03;-0.70;99.90
53045;DHT22;38930;52.766;6.884;2022-12-10T17:17:29;-0.80;99.90
53045;DHT22;38930;52.766;6.884;2022-12-10T17:19:54;-0.80;99.90
53045;DHT22;38930;52.766;6.884;2022-12-10T17:22:20;-0.80;99.90
53045;DHT22;38930;52.766;6.884;2022-12-10T17:24:46;-0.70;99.90
53045;DHT22;38930;52.766;6.884;2022-12-10T17:27:18;-0.80;99.90
53045;DHT22;38930;52.766;6.884;2022-12-10T17:29:45;0.20;99.90
53045;DHT22;38930;52.766;6.884;2022-12-10T17:32:19;-0.80;99.90
53045;DHT22;38930;52.766;6.884;2022-12-10T17:34:45;-0.80;99.90
53045;DHT22;38930;52.766;6.884;2022-12-10T17:37:13;-0.80;99.90
53045;DHT22;38930;52.766;6.884;2022-12-10T17:39:39;-0.80;99.90
53045;DHT22;38930;52.766;6.884;2022-12-10T17:42:04;-0.80;99.90
53045;DHT22;38930;52.766;6.884;2022-12-10T17:44:33;-0.80;99.90